createdAt,value
2019-01-21T00:02:43.101Z,101978.64
2019-01-21T00:07:45.896Z,101974.08
2019-01-21T00:12:48.935Z,101969.98
2019-01-21T00:17:51.862Z,101964.92
2019-01-21T00:22:54.719Z,101960.43
2019-01-21T00:27:57.122Z,101973.05
2019-01-21T00:33:00.117Z,101958.38
2019-01-21T00:38:03.060Z,101956.56
2019-01-21T00:43:05.913Z,101957.27
2019-01-21T00:48:08.914Z,101954.16
2019-01-21T00:53:11.530Z,101949.93
2019-01-21T00:58:14.737Z,101948.41
2019-01-21T01:03:17.739Z,101940.89
2019-01-21T01:08:20.336Z,101950.56
2019-01-21T01:13:23.258Z,101952.88
2019-01-21T01:18:25.428Z,101951.33
2019-01-21T01:23:28.419Z,101951.95
2019-01-21T01:28:31.069Z,101949.41
2019-01-21T01:33:33.856Z,101936.85
2019-01-21T01:38:36.791Z,101931.95
2019-01-21T01:43:39.416Z,101926.11
2019-01-21T01:48:42.142Z,101930.05
2019-01-21T01:53:44.825Z,101927.58
2019-01-21T01:58:47.529Z,101925.81
2019-01-21T02:03:49.922Z,101923.05
2019-01-21T02:08:52.741Z,101919.56
2019-01-21T02:13:55.285Z,101917.30
2019-01-21T02:18:58.230Z,101921.31
2019-01-21T02:24:06.364Z,101911.55
2019-01-21T02:29:14.012Z,101916.01
2019-01-21T02:34:30.896Z,101890.30
2019-01-21T02:39:48.512Z,101890.30
2019-01-21T02:45:23.801Z,101886.56
2019-01-21T02:50:51.369Z,101863.61
2019-01-21T02:56:47.837Z,101863.61
2019-01-21T03:02:31.187Z,101869.17
2019-01-21T03:08:05.734Z,101870.27
2019-01-21T03:13:34.604Z,101876.45
2019-01-21T03:19:18.291Z,101859.91
2019-01-21T03:25:10.969Z,101860.97
2019-01-21T03:30:56.107Z,101848.86
2019-01-21T03:36:27.436Z,101849.95
2019-01-21T03:41:52.491Z,101836.22
2019-01-21T03:47:23.270Z,101829.72
2019-01-21T03:52:42.321Z,101815.30
2019-01-21T03:58:29.520Z,101807.88
2019-01-21T04:04:22.322Z,101798.56
2019-01-21T04:10:01.545Z,101804.89
2019-01-21T04:15:38.140Z,101798.73
2019-01-21T04:21:20.222Z,101793.99
2019-01-21T04:26:54.600Z,101791.21
2019-01-21T04:32:33.001Z,101791.21
2019-01-21T04:38:17.524Z,101800.83
2019-01-21T04:44:06.822Z,101802.25
2019-01-21T04:49:31.616Z,101796.48
2019-01-21T04:54:52.555Z,101782.72
2019-01-21T05:00:35.913Z,101786.39
2019-01-21T05:06:23.333Z,101787.03
2019-01-21T05:11:54.177Z,101775.60
2019-01-21T05:17:35.218Z,101774.98
2019-01-21T05:23:24.810Z,101766.67
2019-01-21T05:29:06.213Z,101748.89
2019-01-21T05:34:46.081Z,101744.70
2019-01-21T05:40:20.992Z,101751.71
2019-01-21T05:46:03.461Z,101758.27
2019-01-21T05:51:40.177Z,101744.20
2019-01-21T05:57:33.549Z,101745.33
2019-01-21T06:03:06.049Z,101739.50
2019-01-21T06:09:00.562Z,101728.94
2019-01-21T06:14:47.993Z,101733.47
2019-01-21T06:20:42.221Z,101724.98
2019-01-21T06:26:14.611Z,101713.26
2019-01-21T06:31:41.486Z,101719.67
2019-01-21T06:37:24.413Z,101724.15
2019-01-21T06:43:16.672Z,101731.64
2019-01-21T06:48:52.542Z,101731.64
2019-01-21T06:54:32.614Z,101726.45
2019-01-21T06:59:52.517Z,101725.62
2019-01-21T07:05:55.321Z,101762.33
2019-01-21T07:11:21.625Z,101725.42
2019-01-21T07:17:07.692Z,101724.33
2019-01-21T07:22:57.604Z,101740.05
2019-01-21T07:28:15.629Z,101722.63
2019-01-21T07:34:13.539Z,101710.72
2019-01-21T07:39:43.774Z,101716.38
2019-01-21T07:45:10.953Z,101708.96
2019-01-21T07:50:33.558Z,101713.59
2019-01-21T07:56:36.228Z,101728.77
2019-01-21T08:02:08.785Z,101728.42
2019-01-21T08:07:30.055Z,101715.55
2019-01-21T08:13:06.452Z,101714.83
2019-01-21T08:18:56.466Z,101710.61
2019-01-21T08:24:38.370Z,101715.97
2019-01-21T08:29:51.914Z,101705.63
2019-01-21T08:35:36.409Z,101715.23
2019-01-21T08:41:17.607Z,101711.00
2019-01-21T08:46:35.212Z,101701.03
2019-01-21T08:52:30.503Z,101688.42
2019-01-21T08:58:07.673Z,101686.93
2019-01-21T09:03:40.099Z,101686.93
2019-01-21T09:09:13.877Z,101679.42
2019-01-21T09:14:36.349Z,101672.22
2019-01-21T09:20:28.971Z,101666.16
2019-01-21T09:26:08.036Z,101668.72
2019-01-21T09:31:42.242Z,101665.41
2019-01-21T09:37:08.431Z,101656.94
2019-01-21T09:42:52.659Z,101662.02
2019-01-21T09:47:54.330Z,101669.19
2019-01-21T09:52:57.742Z,101662.58
2019-01-21T09:58:08.411Z,101661.10
2019-01-21T10:03:11.919Z,101664.17
2019-01-21T10:08:33.895Z,101661.91
2019-01-21T10:14:16.826Z,101652.34
2019-01-21T10:20:16.232Z,101649.41
2019-01-21T10:25:43.627Z,101638.27
2019-01-21T10:31:17.958Z,101633.75
2019-01-21T10:36:57.227Z,101630.95
2019-01-21T10:42:38.022Z,101608.50
2019-01-21T10:47:59.887Z,101598.89
2019-01-21T10:53:56.427Z,101606.43
2019-01-21T10:59:40.219Z,101595.66
2019-01-21T11:05:14.642Z,101592.95
2019-01-21T11:10:43.242Z,101566.27
2019-01-21T11:16:36.946Z,101566.67
2019-01-21T11:22:01.231Z,101567.75
2019-01-21T11:27:26.458Z,101556.09
2019-01-21T11:32:54.856Z,101551.89
2019-01-21T11:38:13.835Z,101553.81
2019-01-21T11:43:40.762Z,101537.08
2019-01-21T11:49:12.491Z,101529.77
2019-01-21T11:55:14.992Z,101529.36
2019-01-21T12:00:29.156Z,101531.50
2019-01-21T12:05:35.932Z,101536.45
2019-01-21T12:11:02.194Z,101532.08
2019-01-21T12:16:41.847Z,101521.14
2019-01-21T12:22:25.913Z,101519.24
2019-01-21T12:28:01.986Z,101520.33
2019-01-21T12:33:16.767Z,101514.62
2019-01-21T12:38:42.736Z,101513.25
2019-01-21T12:44:29.989Z,101501.78
2019-01-21T12:50:00.942Z,101500.94
2019-01-21T12:55:36.410Z,101503.88
2019-01-21T13:01:07.563Z,101499.75
2019-01-21T13:06:29.942Z,101492.89
2019-01-21T13:11:49.420Z,101492.20
2019-01-21T13:17:36.229Z,101480.71
2019-01-21T13:23:19.372Z,101479.69
2019-01-21T13:28:55.247Z,101470.91
2019-01-21T13:34:22.296Z,101468.78
2019-01-21T13:39:56.536Z,101481.81
2019-01-21T13:45:25.266Z,101459.59
2019-01-21T13:50:52.630Z,101447.02
2019-01-21T13:56:09.700Z,101446.45
2019-01-21T14:01:29.902Z,101444.44
2019-01-21T14:06:47.665Z,101439.74
2019-01-21T14:12:44.636Z,101432.27
2019-01-21T14:18:18.933Z,101423.63
2019-01-21T14:23:40.812Z,101422.91
2019-01-21T14:29:08.579Z,101411.54
2019-01-21T14:34:45.890Z,101402.34
2019-01-21T14:40:03.895Z,101405.23
2019-01-21T14:45:28.249Z,101400.19
2019-01-21T14:51:09.064Z,101401.55
2019-01-21T14:56:36.492Z,101407.45
2019-01-21T15:02:20.546Z,101397.82
2019-01-21T15:07:44.514Z,101401.75
2019-01-21T15:13:01.617Z,101396.41
2019-01-21T15:18:38.753Z,101407.25
2019-01-21T15:24:06.044Z,101396.08
2019-01-21T15:29:44.986Z,101399.75
2019-01-21T15:35:28.229Z,101400.98
2019-01-21T15:41:08.660Z,101400.23
2019-01-21T15:46:27.052Z,101400.16
2019-01-21T15:52:20.432Z,101401.94
2019-01-21T15:57:35.856Z,101406.89
2019-01-21T16:02:50.963Z,101404.75
2019-01-21T16:08:02.640Z,101406.20
2019-01-21T16:13:41.371Z,101403.41
2019-01-21T16:18:55.479Z,101401.98
2019-01-21T16:24:39.308Z,101398.13
2019-01-21T16:29:50.582Z,101400.57
2019-01-21T16:35:14.313Z,101399.91
2019-01-21T16:41:09.839Z,101392.75
2019-01-21T16:46:12.680Z,101392.87
2019-01-21T16:51:20.231Z,101392.63
2019-01-21T16:56:19.794Z,101392.77
2019-01-21T17:01:21.894Z,101383.17
2019-01-21T17:06:24.575Z,101388.67
2019-01-21T17:11:27.445Z,101388.92
2019-01-21T17:16:30.233Z,101375.64
2019-01-21T17:21:32.449Z,101370.94
2019-01-21T17:26:35.323Z,101378.32
2019-01-21T17:31:38.423Z,101372.00
2019-01-21T17:36:41.379Z,101377.43
2019-01-21T17:41:44.161Z,101379.63
2019-01-21T17:46:47.061Z,101369.98
2019-01-21T17:51:50.013Z,101364.14
2019-01-21T17:56:53.093Z,101362.58
2019-01-21T18:01:56.228Z,101357.77
2019-01-21T18:06:58.805Z,101360.81
2019-01-21T18:12:01.611Z,101357.56
2019-01-21T18:17:04.509Z,101346.91
2019-01-21T18:22:07.742Z,101349.03
2019-01-21T18:27:10.681Z,101338.81
2019-01-21T18:32:13.627Z,101341.06
2019-01-21T18:37:16.854Z,101346.27
2019-01-21T18:42:19.921Z,101343.34
2019-01-21T18:47:22.953Z,101350.80
2019-01-21T18:52:26.100Z,101341.94
2019-01-21T18:57:28.967Z,101329.23
2019-01-21T19:02:32.121Z,101329.91
2019-01-21T19:07:37.643Z,101333.33
2019-01-21T19:12:40.628Z,101338.09
2019-01-21T19:17:44.382Z,101333.64
2019-01-21T19:22:48.234Z,101339.09
2019-01-21T19:27:51.909Z,101328.72
2019-01-21T19:32:55.782Z,101328.15
2019-01-21T19:38:00.266Z,101324.09
2019-01-21T19:43:05.880Z,101314.92
2019-01-21T19:48:12.416Z,101321.89
2019-01-21T19:53:16.612Z,101313.69
2019-01-21T19:58:21.268Z,101320.33
2019-01-21T20:03:27.575Z,101318.75
2019-01-21T20:08:32.642Z,101317.05
2019-01-21T20:13:36.979Z,101302.24
2019-01-21T20:18:40.557Z,101308.45
2019-01-21T20:23:46.532Z,101311.19
2019-01-21T20:28:51.049Z,101303.22
2019-01-21T20:33:55.293Z,101302.47
2019-01-21T20:38:59.259Z,101305.17
2019-01-21T20:44:02.350Z,101309.39
2019-01-21T20:49:05.395Z,101307.86
2019-01-21T20:54:08.180Z,101307.20
2019-01-21T20:59:11.189Z,101301.86
2019-01-21T21:04:14.105Z,101303.20
2019-01-21T21:09:17.713Z,101297.49
2019-01-21T21:14:20.738Z,101302.89
2019-01-21T21:19:24.395Z,101304.75
2019-01-21T21:24:27.993Z,101305.47
2019-01-21T21:29:30.934Z,101306.02
2019-01-21T21:34:34.644Z,101305.78
2019-01-21T21:39:37.932Z,101304.78
2019-01-21T21:44:40.868Z,101307.34
2019-01-21T21:49:44.419Z,101299.17
2019-01-21T21:54:47.957Z,101302.11
2019-01-21T21:59:51.325Z,101293.61
2019-01-21T22:04:56.074Z,101298.95
2019-01-21T22:09:59.760Z,101286.00
2019-01-21T22:15:02.811Z,101279.34
2019-01-21T22:20:08.107Z,101271.97
2019-01-21T22:25:11.282Z,101260.73
2019-01-21T22:30:25.655Z,101261.73
2019-01-21T22:35:28.877Z,101258.91
2019-01-21T22:40:31.355Z,101255.64
2019-01-21T22:45:34.464Z,101260.88
2019-01-21T22:50:37.056Z,101257.19
2019-01-21T22:55:39.748Z,101267.41
2019-01-21T23:00:51.329Z,101255.55
2019-01-21T23:05:54.256Z,101263.88
2019-01-21T23:10:57.134Z,101251.49
2019-01-21T23:15:59.965Z,101249.50
2019-01-21T23:21:02.457Z,101243.97
2019-01-21T23:26:05.314Z,101241.20
2019-01-21T23:31:08.067Z,101232.68
2019-01-21T23:36:11.323Z,101225.10
2019-01-21T23:41:13.849Z,101224.42
2019-01-21T23:46:17.088Z,101219.18
2019-01-21T23:51:19.836Z,101218.78
2019-01-21T23:56:22.977Z,101212.08
